createdAt,value
2023-04-18T00:00:43.499Z,11
2023-04-18T00:01:57.765Z,10
2023-04-18T00:03:11.881Z,11
2023-04-18T00:05:40.026Z,10
2023-04-18T00:06:54.079Z,10
2023-04-18T00:08:08.304Z,10
2023-04-18T00:09:22.367Z,10
2023-04-18T00:11:50.594Z,10
2023-04-18T00:13:04.782Z,11
2023-04-18T00:14:18.890Z,11
2023-04-18T00:16:47.192Z,11
2023-04-18T00:18:01.361Z,10
2023-04-18T00:19:15.460Z,10
2023-04-18T00:21:43.670Z,10
2023-04-18T00:22:57.832Z,11
2023-04-18T00:24:12.175Z,11
2023-04-18T00:26:40.188Z,10
2023-04-18T00:27:54.408Z,10
2023-04-18T00:29:08.488Z,10
2023-04-18T00:30:22.681Z,10
2023-04-18T00:32:51.052Z,10
2023-04-18T00:34:04.999Z,11
2023-04-18T00:35:19.226Z,10
2023-04-18T00:37:47.475Z,11
2023-04-18T00:39:01.516Z,11
2023-04-18T00:40:15.678Z,11
2023-04-18T00:42:43.971Z,11
2023-04-18T00:43:58.197Z,11
2023-04-18T00:45:12.215Z,11
2023-04-18T00:47:40.482Z,11
2023-04-18T00:48:54.672Z,11
2023-04-18T00:50:08.773Z,11
2023-04-18T00:51:22.925Z,10
2023-04-18T00:53:51.121Z,10
2023-04-18T00:55:05.308Z,11
2023-04-18T00:56:19.481Z,11
2023-04-18T00:58:47.771Z,10
2023-04-18T01:00:01.799Z,11
2023-04-18T01:01:16.083Z,11
2023-04-18T01:03:44.417Z,11
2023-04-18T01:04:58.441Z,11
2023-04-18T01:06:12.459Z,11
2023-04-18T01:08:40.739Z,10
2023-04-18T01:09:54.881Z,11
2023-04-18T01:11:09.016Z,11
2023-04-18T01:12:23.137Z,11
2023-04-18T01:14:51.387Z,11
2023-04-18T01:16:05.600Z,11
2023-04-18T01:17:19.705Z,11
2023-04-18T01:19:47.974Z,10
2023-04-18T01:21:02.110Z,10
2023-04-18T01:22:16.208Z,10
2023-04-18T01:24:44.532Z,11
2023-04-18T01:25:58.655Z,11
2023-04-18T01:27:12.826Z,11
2023-04-18T01:29:40.980Z,10
2023-04-18T01:30:55.241Z,11
2023-04-18T01:32:09.389Z,11
2023-04-18T01:33:23.493Z,12
2023-04-18T01:35:51.647Z,11
2023-04-18T01:37:05.937Z,11
2023-04-18T01:38:19.944Z,11
2023-04-18T01:40:48.241Z,10
2023-04-18T01:42:02.351Z,11
2023-04-18T01:43:16.509Z,11
2023-04-18T01:45:44.801Z,11
2023-04-18T01:46:58.962Z,11
2023-04-18T01:48:12.999Z,10
2023-04-18T01:50:41.227Z,11
2023-04-18T01:51:55.458Z,11
2023-04-18T01:53:09.548Z,10
2023-04-18T01:54:23.741Z,10
2023-04-18T01:56:51.998Z,11
2023-04-18T01:58:06.156Z,10
2023-04-18T01:59:20.273Z,10
2023-04-18T02:01:48.584Z,11
2023-04-18T02:03:02.680Z,10
2023-04-18T02:04:17.104Z,11
2023-04-18T02:06:44.992Z,11
2023-04-18T02:07:59.132Z,10
2023-04-18T02:09:13.309Z,10
2023-04-18T02:11:41.521Z,10
2023-04-18T02:12:55.644Z,10
2023-04-18T02:14:09.801Z,10
2023-04-18T02:15:24.000Z,10
2023-04-18T02:17:52.245Z,12
2023-04-18T02:19:06.400Z,10
2023-04-18T02:20:20.436Z,11
2023-04-18T02:24:02.976Z,12
2023-04-18T02:25:17.111Z,11
2023-04-18T02:27:45.329Z,10
2023-04-18T02:28:59.503Z,11
2023-04-18T02:30:13.619Z,11
2023-04-18T02:32:41.783Z,11
2023-04-18T02:33:55.912Z,11
2023-04-18T02:35:10.074Z,11
2023-04-18T02:37:38.312Z,11
2023-04-18T02:38:52.468Z,12
2023-04-18T02:40:06.622Z,11
2023-04-18T02:41:20.712Z,11
2023-04-18T02:43:49.054Z,12
2023-04-18T02:45:03.162Z,12
2023-04-18T02:46:17.264Z,11
2023-04-18T02:48:45.608Z,11
2023-04-18T02:49:59.717Z,11
2023-04-18T02:51:13.853Z,11
2023-04-18T02:53:42.043Z,11
2023-04-18T02:54:56.177Z,11
2023-04-18T02:56:10.280Z,11
2023-04-18T02:58:38.576Z,10
2023-04-18T02:59:52.705Z,11
2023-04-18T03:01:06.892Z,11
2023-04-18T03:02:21.158Z,10
2023-04-18T03:04:49.294Z,12
2023-04-18T03:06:03.408Z,11
2023-04-18T03:07:17.504Z,11
2023-04-18T03:09:45.847Z,11
2023-04-18T03:10:59.952Z,11
2023-04-18T03:12:14.104Z,10
2023-04-18T03:14:42.321Z,11
2023-04-18T03:15:56.488Z,11
2023-04-18T03:17:10.538Z,10
2023-04-18T03:19:38.921Z,11
2023-04-18T03:20:52.965Z,11
2023-04-18T03:22:07.198Z,11
2023-04-18T03:23:21.242Z,11
2023-04-18T03:25:49.529Z,10
2023-04-18T03:27:03.746Z,11
2023-04-18T03:28:17.793Z,11
2023-04-18T03:30:46.059Z,10
2023-04-18T03:32:00.151Z,10
2023-04-18T03:33:14.349Z,11
2023-04-18T03:35:42.575Z,11
2023-04-18T03:36:56.756Z,12
2023-04-18T03:38:10.825Z,11
2023-04-18T03:40:39.198Z,11
2023-04-18T03:41:53.225Z,11
2023-04-18T03:43:07.437Z,10
2023-04-18T03:44:21.501Z,10
2023-04-18T03:46:49.817Z,10
2023-04-18T03:48:03.960Z,10
2023-04-18T03:49:18.086Z,11
2023-04-18T03:51:46.308Z,11
2023-04-18T03:53:00.474Z,11
2023-04-18T03:54:14.780Z,11
2023-04-18T03:56:42.894Z,11
2023-04-18T03:57:56.974Z,10
2023-04-18T03:59:11.069Z,11
2023-04-18T04:00:25.201Z,11
2023-04-18T04:01:39.502Z,10
2023-04-18T04:02:53.796Z,11
2023-04-18T04:04:07.736Z,11
2023-04-18T04:05:21.737Z,12
2023-04-18T04:07:50.055Z,11
2023-04-18T04:09:04.178Z,11
2023-04-18T04:10:18.329Z,12
2023-04-18T04:12:46.614Z,12
2023-04-18T04:14:00.676Z,12
2023-04-18T04:15:14.809Z,12
2023-04-18T04:17:43.138Z,12
2023-04-18T04:18:57.209Z,12
2023-04-18T04:20:11.362Z,12
2023-04-18T04:22:39.635Z,12
2023-04-18T04:23:53.817Z,12
2023-04-18T04:25:08.040Z,12
2023-04-18T04:26:22.028Z,12
2023-04-18T04:28:50.261Z,12
2023-04-18T04:30:04.514Z,13
2023-04-18T04:31:18.606Z,13
2023-04-18T04:33:46.881Z,12
2023-04-18T04:35:00.933Z,12
2023-04-18T04:36:16.740Z,12
2023-04-18T04:38:43.348Z,13
2023-04-18T04:39:57.495Z,12
2023-04-18T04:41:11.577Z,12
2023-04-18T04:43:39.887Z,13
2023-04-18T04:44:54.102Z,13
2023-04-18T04:46:08.209Z,13
2023-04-18T04:47:22.331Z,13
2023-04-18T04:49:50.514Z,12
2023-04-18T04:51:04.683Z,13
2023-04-18T04:52:19.026Z,13
2023-04-18T04:54:47.200Z,12
2023-04-18T04:56:01.179Z,13
2023-04-18T04:57:15.379Z,13
2023-04-18T04:59:43.649Z,13
2023-04-18T05:00:57.777Z,14
2023-04-18T05:02:11.965Z,14
2023-04-18T05:04:40.262Z,13
2023-04-18T05:05:54.309Z,13
2023-04-18T05:07:08.405Z,14
2023-04-18T05:08:22.567Z,13
2023-04-18T05:10:50.791Z,13
2023-04-18T05:12:05.002Z,13
2023-04-18T05:13:19.179Z,13
2023-04-18T05:15:47.419Z,14
2023-04-18T05:17:02.058Z,14
2023-04-18T05:18:15.622Z,14
2023-04-18T05:20:43.982Z,15
2023-04-18T05:21:58.103Z,14
2023-04-18T05:23:12.158Z,14
2023-04-18T05:24:26.286Z,14
2023-04-18T05:25:40.375Z,14
2023-04-18T05:26:54.569Z,15
2023-04-18T05:28:08.722Z,14
2023-04-18T05:29:22.836Z,14
2023-04-18T05:31:51.047Z,14
2023-04-18T05:33:05.307Z,15
2023-04-18T05:34:19.359Z,14
2023-04-18T05:36:47.599Z,13
2023-04-18T05:38:01.739Z,14
2023-04-18T05:39:15.870Z,14
2023-04-18T05:41:44.214Z,13
2023-04-18T05:42:58.300Z,13
2023-04-18T05:44:12.443Z,13
2023-04-18T05:46:40.739Z,13
2023-04-18T05:47:54.977Z,13
2023-04-18T05:49:09.061Z,14
2023-04-18T05:50:23.201Z,14
2023-04-18T05:52:51.323Z,13
2023-04-18T05:54:05.493Z,13
2023-04-18T05:55:19.661Z,13
2023-04-18T05:57:47.885Z,13
2023-04-18T05:59:02.394Z,13
2023-04-18T06:00:16.197Z,13
2023-04-18T06:02:44.610Z,14
2023-04-18T06:03:58.818Z,13
2023-04-18T06:05:12.978Z,13
2023-04-18T06:07:40.924Z,13
2023-04-18T06:08:55.070Z,13
2023-04-18T06:10:09.298Z,13
2023-04-18T06:11:23.441Z,13
2023-04-18T06:13:51.569Z,13
2023-04-18T06:15:05.860Z,12
2023-04-18T06:16:20.062Z,12
2023-04-18T06:18:48.249Z,12
2023-04-18T06:20:02.466Z,13
2023-04-18T06:21:16.409Z,12
2023-04-18T06:23:44.676Z,11
2023-04-18T06:24:58.816Z,12
2023-04-18T06:26:12.935Z,12
2023-04-18T06:28:41.203Z,11
2023-04-18T06:29:55.400Z,12
2023-04-18T06:31:09.484Z,12
2023-04-18T06:32:23.735Z,11
2023-04-18T06:34:51.869Z,11
2023-04-18T06:36:06.088Z,12
2023-04-18T06:37:20.237Z,12
2023-04-18T06:39:48.503Z,11
2023-04-18T06:41:02.581Z,11
2023-04-18T06:42:16.791Z,11
2023-04-18T06:44:45.064Z,11
2023-04-18T06:45:59.148Z,12
2023-04-18T06:47:13.223Z,12
2023-04-18T06:49:41.462Z,11
2023-04-18T06:50:55.642Z,11
2023-04-18T06:52:09.812Z,12
2023-04-18T06:53:23.915Z,12
2023-04-18T06:55:52.121Z,11
2023-04-18T06:57:06.281Z,12
2023-04-18T06:58:20.424Z,12
2023-04-18T07:00:48.767Z,11
2023-04-18T07:02:02.869Z,11
2023-04-18T07:03:17.087Z,11
2023-04-18T07:05:45.305Z,12
2023-04-18T07:06:59.429Z,11
2023-04-18T07:08:13.485Z,11
2023-04-18T07:10:41.757Z,10
2023-04-18T07:11:55.872Z,11
2023-04-18T07:13:09.998Z,11
2023-04-18T07:14:24.158Z,11
2023-04-18T07:16:52.497Z,10
2023-04-18T07:18:06.624Z,11
2023-04-18T07:19:20.630Z,10
2023-04-18T07:21:48.986Z,10
2023-04-18T07:23:03.048Z,10
2023-04-18T07:24:17.281Z,9
2023-04-18T07:26:45.527Z,10
2023-04-18T07:27:59.676Z,10
2023-04-18T07:29:13.722Z,10
2023-04-18T07:31:41.975Z,11
2023-04-18T07:32:56.179Z,10
2023-04-18T07:34:10.251Z,9
2023-04-18T07:36:38.623Z,10
2023-04-18T07:37:52.697Z,9
2023-04-18T07:39:06.779Z,9
2023-04-18T07:40:20.924Z,9
2023-04-18T07:42:49.233Z,9
2023-04-18T07:44:03.332Z,9
2023-04-18T07:45:17.454Z,10
2023-04-18T07:47:45.858Z,9
2023-04-18T07:48:59.856Z,8
2023-04-18T07:50:14.051Z,8
2023-04-18T07:52:42.253Z,9
2023-04-18T07:53:56.371Z,9
2023-04-18T07:55:10.527Z,8
2023-04-18T07:57:38.876Z,9
2023-04-18T07:58:52.917Z,8
2023-04-18T08:00:07.152Z,8
2023-04-18T08:01:21.162Z,8
2023-04-18T08:03:49.689Z,8
2023-04-18T08:05:03.708Z,8
2023-04-18T08:06:17.755Z,9
2023-04-18T08:08:46.028Z,8
2023-04-18T08:10:00.219Z,8
2023-04-18T08:11:14.266Z,8
2023-04-18T08:13:42.549Z,8
2023-04-18T08:14:56.646Z,8
2023-04-18T08:16:10.778Z,8
2023-04-18T08:18:39.103Z,8
2023-04-18T08:19:53.267Z,8
2023-04-18T08:21:07.387Z,8
2023-04-18T08:22:21.437Z,7
2023-04-18T08:25:03.812Z,7
2023-04-18T08:26:03.864Z,7
2023-04-18T08:27:18.084Z,8
2023-04-18T08:29:46.253Z,7
2023-04-18T08:31:00.353Z,7
2023-04-18T08:32:14.636Z,7
2023-04-18T08:34:42.771Z,7
2023-04-18T08:35:56.923Z,7
2023-04-18T08:37:11.118Z,7
2023-04-18T08:39:39.353Z,7
2023-04-18T08:40:53.528Z,6
2023-04-18T08:42:07.627Z,6
2023-04-18T08:43:21.702Z,7
2023-04-18T08:45:50.067Z,6
2023-04-18T08:47:04.142Z,7
2023-04-18T08:48:18.297Z,7
2023-04-18T08:50:46.584Z,6
2023-04-18T08:52:00.672Z,7
2023-04-18T08:53:14.773Z,7
2023-04-18T08:55:43.147Z,6
2023-04-18T08:56:57.195Z,6
2023-04-18T08:58:11.291Z,7
2023-04-18T09:00:39.693Z,6
2023-04-18T09:01:53.826Z,6
2023-04-18T09:03:08.024Z,6
2023-04-18T09:04:22.034Z,6
2023-04-18T09:06:50.229Z,5
2023-04-18T09:08:04.361Z,6
2023-04-18T09:09:18.537Z,6
2023-04-18T09:11:46.779Z,6
2023-04-18T09:13:00.895Z,6
2023-04-18T09:14:15.202Z,6
2023-04-18T09:16:43.378Z,6
2023-04-18T09:17:57.479Z,6
2023-04-18T09:19:11.714Z,6
2023-04-18T09:21:39.927Z,7
2023-04-18T09:22:54.059Z,6
2023-04-18T09:24:08.128Z,6
2023-04-18T09:25:22.319Z,6
2023-04-18T09:27:50.509Z,6
2023-04-18T09:29:04.698Z,6
2023-04-18T09:30:18.783Z,6
2023-04-18T09:32:47.083Z,5
2023-04-18T09:34:01.143Z,6
2023-04-18T09:35:15.326Z,6
2023-04-18T09:37:43.573Z,6
2023-04-18T09:38:57.720Z,5
2023-04-18T09:40:11.854Z,5
2023-04-18T09:42:40.158Z,6
2023-04-18T09:43:54.291Z,6
2023-04-18T09:45:08.394Z,6
2023-04-18T09:46:22.672Z,6
2023-04-18T09:48:50.760Z,6
2023-04-18T09:50:04.919Z,6
2023-04-18T09:51:19.073Z,5
2023-04-18T09:53:47.476Z,6
2023-04-18T09:55:01.479Z,6
2023-04-18T09:56:15.712Z,6
2023-04-18T09:58:43.862Z,6
2023-04-18T09:59:57.994Z,5
2023-04-18T10:01:12.154Z,6
2023-04-18T10:02:26.289Z,5
2023-04-18T10:03:40.452Z,6
2023-04-18T10:04:54.696Z,6
2023-04-18T10:06:08.663Z,5
2023-04-18T10:07:22.789Z,5
2023-04-18T10:09:51.049Z,6
2023-04-18T10:11:05.194Z,6
2023-04-18T10:12:19.389Z,6
2023-04-18T10:14:47.595Z,6
2023-04-18T10:16:01.748Z,6
2023-04-18T10:17:15.859Z,6
2023-04-18T10:19:44.193Z,6
2023-04-18T10:20:58.255Z,6
2023-04-18T10:22:12.384Z,6
2023-04-18T10:24:40.609Z,6
2023-04-18T10:25:54.882Z,6
2023-04-18T10:27:08.925Z,6
2023-04-18T10:28:23.140Z,6
2023-04-18T10:30:51.286Z,5
2023-04-18T10:32:05.434Z,6
2023-04-18T10:33:29.347Z,6
2023-04-18T10:35:47.892Z,6
2023-04-18T10:37:01.996Z,6
2023-04-18T10:38:16.156Z,6
2023-04-18T10:40:44.439Z,6
2023-04-18T10:41:58.569Z,5
2023-04-18T10:43:12.697Z,6
2023-04-18T10:45:40.921Z,6
2023-04-18T10:46:55.051Z,6
2023-04-18T10:48:09.216Z,5
2023-04-18T10:49:25.845Z,5
2023-04-18T10:51:51.564Z,6
2023-04-18T10:53:05.724Z,6
2023-04-18T10:54:19.854Z,6
2023-04-18T10:56:48.203Z,6
2023-04-18T10:58:02.366Z,6
2023-04-18T10:59:16.378Z,6
2023-04-18T11:01:44.764Z,6
2023-04-18T11:02:58.961Z,6
2023-04-18T11:04:13.385Z,6
2023-04-18T11:06:41.173Z,5
2023-04-18T11:07:55.382Z,5
2023-04-18T11:09:09.433Z,5
2023-04-18T11:10:23.650Z,5
2023-04-18T11:12:51.838Z,5
2023-04-18T11:14:06.055Z,5
2023-04-18T11:15:20.184Z,5
2023-04-18T11:17:48.485Z,5
2023-04-18T11:19:02.586Z,5
2023-04-18T11:20:16.756Z,6
2023-04-18T11:22:45.011Z,5
2023-04-18T11:23:59.163Z,5
2023-04-18T11:25:13.313Z,5
2023-04-18T11:27:41.443Z,5
2023-04-18T11:28:55.716Z,5
2023-04-18T11:30:09.744Z,5
2023-04-18T11:31:23.866Z,4
2023-04-18T11:33:52.119Z,5
2023-04-18T11:35:06.294Z,5
2023-04-18T11:36:20.379Z,5
2023-04-18T11:38:48.662Z,5
2023-04-18T11:40:02.838Z,5
2023-04-18T11:41:16.981Z,5
2023-04-18T11:43:45.248Z,5
2023-04-18T11:44:59.401Z,5
2023-04-18T11:46:13.515Z,5
2023-04-18T11:48:41.689Z,5
2023-04-18T11:49:57.164Z,5
2023-04-18T11:51:09.982Z,5
2023-04-18T11:52:24.191Z,5
2023-04-18T11:54:52.507Z,5
2023-04-18T11:56:06.617Z,5
2023-04-18T11:57:20.635Z,4
2023-04-18T11:59:48.937Z,5
2023-04-18T12:01:03.151Z,4
2023-04-18T12:02:17.463Z,4
2023-04-18T12:04:45.762Z,5
2023-04-18T12:05:59.906Z,5
2023-04-18T12:07:13.752Z,5
2023-04-18T12:09:42.034Z,5
2023-04-18T12:10:56.136Z,4
2023-04-18T12:12:10.258Z,4
2023-04-18T12:14:38.581Z,5
2023-04-18T12:15:52.730Z,4
2023-04-18T12:17:06.846Z,4
2023-04-18T12:18:20.910Z,4
2023-04-18T12:20:49.211Z,5
2023-04-18T12:22:03.355Z,4
2023-04-18T12:23:17.469Z,5
2023-04-18T12:25:45.824Z,5
2023-04-18T12:26:59.962Z,4
2023-04-18T12:28:14.089Z,5
2023-04-18T12:30:42.375Z,4
2023-04-18T12:31:56.460Z,4
2023-04-18T12:33:10.504Z,4
2023-04-18T12:35:38.830Z,4
2023-04-18T12:36:52.944Z,5
2023-04-18T12:38:07.070Z,5
2023-04-18T12:39:21.176Z,4
2023-04-18T12:41:49.983Z,4
2023-04-18T12:43:03.991Z,4
2023-04-18T12:44:17.789Z,4
2023-04-18T12:46:46.110Z,5
2023-04-18T12:48:00.264Z,5
2023-04-18T12:49:14.316Z,4
2023-04-18T12:51:42.601Z,5
2023-04-18T12:52:56.674Z,5
2023-04-18T12:54:10.760Z,4
2023-04-18T12:56:39.147Z,5
2023-04-18T12:57:53.188Z,4
2023-04-18T12:59:07.429Z,5
2023-04-18T13:00:21.450Z,4
2023-04-18T13:02:49.914Z,5
2023-04-18T13:04:11.921Z,4
2023-04-18T13:05:18.039Z,4
2023-04-18T13:07:46.292Z,5
2023-04-18T13:09:00.365Z,5
2023-04-18T13:10:14.654Z,5
2023-04-18T13:12:42.794Z,4
2023-04-18T13:13:56.938Z,4
2023-04-18T13:15:11.059Z,4
2023-04-18T13:17:39.450Z,5
2023-04-18T13:18:53.556Z,5
2023-04-18T13:20:07.697Z,4
2023-04-18T13:21:21.711Z,4
2023-04-18T13:23:50.108Z,5
2023-04-18T13:25:04.565Z,5
2023-04-18T13:26:18.371Z,5
2023-04-18T13:28:46.626Z,5
2023-04-18T13:30:00.669Z,5
2023-04-18T13:31:16.925Z,5
2023-04-18T13:33:43.072Z,5
2023-04-18T13:34:57.221Z,5
2023-04-18T13:36:11.318Z,5
2023-04-18T13:38:39.672Z,5
2023-04-18T13:39:53.764Z,5
2023-04-18T13:41:12.671Z,5
2023-04-18T13:42:21.981Z,5
2023-04-18T13:44:50.265Z,5
2023-04-18T13:46:04.713Z,5
2023-04-18T13:47:18.637Z,5
2023-04-18T13:49:46.876Z,5
2023-04-18T13:51:00.911Z,5
2023-04-18T13:52:15.061Z,5
2023-04-18T13:54:43.389Z,5
2023-04-18T13:55:57.459Z,5
2023-04-18T13:57:11.670Z,5
2023-04-18T13:59:39.881Z,5
2023-04-18T14:00:54.025Z,5
2023-04-18T14:02:08.237Z,5
2023-04-18T14:03:22.479Z,5
2023-04-18T14:05:50.497Z,5
2023-04-18T14:07:04.850Z,5
2023-04-18T14:08:18.830Z,5
2023-04-18T14:10:47.119Z,6
2023-04-18T14:12:01.183Z,6
2023-04-18T14:13:15.324Z,6
2023-04-18T14:15:43.684Z,5
2023-04-18T14:16:57.728Z,5
2023-04-18T14:18:11.873Z,5
2023-04-18T14:20:40.137Z,5
2023-04-18T14:21:54.365Z,5
2023-04-18T14:23:08.415Z,5
2023-04-18T14:24:22.552Z,5
2023-04-18T14:26:50.803Z,5
2023-04-18T14:28:04.940Z,5
2023-04-18T14:29:19.185Z,5
2023-04-18T14:31:47.427Z,6
2023-04-18T14:33:01.469Z,6
2023-04-18T14:34:15.620Z,6
2023-04-18T14:36:43.921Z,6
2023-04-18T14:37:58.013Z,6
2023-04-18T14:39:12.452Z,5
2023-04-18T14:40:26.250Z,6
2023-04-18T14:41:40.394Z,6
2023-04-18T14:42:54.549Z,6
2023-04-18T14:44:08.672Z,6
2023-04-18T14:45:22.882Z,7
2023-04-18T14:47:51.067Z,6
2023-04-18T14:49:05.201Z,5
2023-04-18T14:50:19.422Z,5
2023-04-18T14:52:47.694Z,6
2023-04-18T14:54:01.750Z,5
2023-04-18T14:55:15.934Z,6
2023-04-18T14:57:44.245Z,5
2023-04-18T14:58:58.696Z,5
2023-04-18T15:00:12.554Z,5
2023-04-18T15:02:40.867Z,6
2023-04-18T15:03:54.969Z,5
2023-04-18T15:05:09.090Z,6
2023-04-18T15:06:23.206Z,6
2023-04-18T15:08:51.340Z,5
2023-04-18T15:10:05.582Z,5
2023-04-18T15:11:19.647Z,5
2023-04-18T15:13:47.879Z,6
2023-04-18T15:15:02.065Z,5
2023-04-18T15:16:16.234Z,5
2023-04-18T15:18:44.412Z,5
2023-04-18T15:19:58.548Z,5
2023-04-18T15:21:12.699Z,4
2023-04-18T15:23:40.915Z,5
2023-04-18T15:24:55.170Z,4
2023-04-18T15:26:09.314Z,5
2023-04-18T15:27:23.439Z,5
2023-04-18T15:29:51.600Z,5
2023-04-18T15:31:05.770Z,5
2023-04-18T15:32:20.100Z,5
2023-04-18T15:34:48.172Z,5
2023-04-18T15:36:02.310Z,5
2023-04-18T15:37:16.433Z,5
2023-04-18T15:39:44.719Z,5
2023-04-18T15:40:58.838Z,5
2023-04-18T15:42:12.998Z,5
2023-04-18T15:44:41.217Z,5
2023-04-18T15:45:55.427Z,5
2023-04-18T15:47:09.615Z,5
2023-04-18T15:48:23.697Z,5
2023-04-18T15:50:52.053Z,5
2023-04-18T15:52:06.107Z,5
2023-04-18T15:53:20.220Z,5
2023-04-18T15:55:48.524Z,4
2023-04-18T15:57:02.576Z,4
2023-04-18T15:58:16.695Z,4
2023-04-18T16:00:45.054Z,4
2023-04-18T16:01:59.311Z,4
2023-04-18T16:03:13.420Z,4
2023-04-18T16:05:41.457Z,4
2023-04-18T16:06:55.639Z,4
2023-04-18T16:08:09.779Z,3
2023-04-18T16:09:23.923Z,4
2023-04-18T16:11:52.174Z,4
2023-04-18T16:13:06.282Z,3
2023-04-18T16:14:20.405Z,4
2023-04-18T16:16:48.727Z,4
2023-04-18T16:18:02.928Z,4
2023-04-18T16:19:16.975Z,4
2023-04-18T16:21:45.286Z,4
2023-04-18T16:22:59.381Z,4
2023-04-18T16:24:13.731Z,3
2023-04-18T16:26:41.734Z,4
2023-04-18T16:27:55.985Z,4
2023-04-18T16:29:10.050Z,4
2023-04-18T16:31:38.422Z,4
2023-04-18T16:32:52.487Z,4
2023-04-18T16:34:06.583Z,4
2023-04-18T16:35:20.705Z,4
2023-04-18T16:37:48.981Z,4
2023-04-18T16:39:03.142Z,4
2023-04-18T16:40:17.232Z,4
2023-04-18T16:42:45.535Z,3
2023-04-18T16:43:59.683Z,4
2023-04-18T16:45:13.761Z,4
2023-04-18T16:47:42.126Z,3
2023-04-18T16:48:56.224Z,3
2023-04-18T16:50:10.281Z,3
2023-04-18T16:51:24.453Z,3
2023-04-18T16:53:52.694Z,3
2023-04-18T16:55:06.842Z,3
2023-04-18T16:56:20.976Z,3
2023-04-18T16:58:49.331Z,3
2023-04-18T17:00:03.473Z,3
2023-04-18T17:01:17.561Z,3
2023-04-18T17:03:45.925Z,4
2023-04-18T17:04:59.952Z,3
2023-04-18T17:06:14.147Z,3
2023-04-18T17:08:42.312Z,3
2023-04-18T17:09:56.448Z,3
2023-04-18T17:11:10.564Z,3
2023-04-18T17:13:38.814Z,3
2023-04-18T17:14:53.014Z,3
2023-04-18T17:16:07.161Z,3
2023-04-18T17:17:21.188Z,3
2023-04-18T17:19:49.562Z,4
2023-04-18T17:21:03.677Z,3
2023-04-18T17:22:17.815Z,3
2023-04-18T17:24:46.097Z,4
2023-04-18T17:26:00.173Z,3
2023-04-18T17:27:14.373Z,4
2023-04-18T17:29:42.661Z,4
2023-04-18T17:30:56.790Z,3
2023-04-18T17:32:10.924Z,4
2023-04-18T17:34:39.113Z,4
2023-04-18T17:35:53.241Z,3
2023-04-18T17:37:07.359Z,3
2023-04-18T17:38:21.517Z,4
2023-04-18T17:40:49.783Z,3
2023-04-18T17:42:03.897Z,3
2023-04-18T17:43:18.069Z,3
2023-04-18T17:45:46.394Z,3
2023-04-18T17:47:00.408Z,4
2023-04-18T17:48:14.637Z,3
2023-04-18T17:50:42.918Z,4
2023-04-18T17:51:56.966Z,4
2023-04-18T17:53:11.090Z,4
2023-04-18T17:55:39.470Z,4
2023-04-18T17:56:53.580Z,4
2023-04-18T17:58:07.628Z,4
2023-04-18T17:59:21.765Z,4
2023-04-18T18:01:50.137Z,4
2023-04-18T18:03:04.471Z,4
2023-04-18T18:04:18.380Z,4
2023-04-18T18:06:46.567Z,4
2023-04-18T18:08:00.674Z,4
2023-04-18T18:09:15.039Z,4
2023-04-18T18:11:43.153Z,5
2023-04-18T18:12:57.254Z,4
2023-04-18T18:14:11.464Z,5
2023-04-18T18:15:25.692Z,4
2023-04-18T18:17:53.844Z,4
2023-04-18T18:19:07.915Z,4
2023-04-18T18:20:22.040Z,5
2023-04-18T18:22:50.291Z,5
2023-04-18T18:24:04.532Z,5
2023-04-18T18:25:18.660Z,5
2023-04-18T18:27:46.949Z,5
2023-04-18T18:29:00.945Z,5
2023-04-18T18:30:15.099Z,5
2023-04-18T18:32:43.403Z,5
2023-04-18T18:33:57.522Z,5
2023-04-18T18:35:11.609Z,5
2023-04-18T18:37:39.884Z,5
2023-04-18T18:38:54.085Z,5
2023-04-18T18:40:08.165Z,5
2023-04-18T18:41:22.298Z,6
2023-04-18T18:43:50.556Z,5
2023-04-18T18:45:04.776Z,5
2023-04-18T18:46:18.903Z,6
2023-04-18T18:48:47.178Z,5
2023-04-18T18:50:01.227Z,5
2023-04-18T18:51:15.439Z,5
2023-04-18T18:53:43.657Z,5
2023-04-18T18:54:57.793Z,5
2023-04-18T18:56:11.905Z,5
2023-04-18T18:58:40.181Z,5
2023-04-18T18:59:55.837Z,6
2023-04-18T19:01:08.426Z,5
2023-04-18T19:02:22.794Z,5
2023-04-18T19:04:50.910Z,4
2023-04-18T19:06:05.018Z,5
2023-04-18T19:07:19.085Z,5
2023-04-18T19:09:47.393Z,5
2023-04-18T19:11:01.457Z,5
2023-04-18T19:12:15.683Z,5
2023-04-18T19:14:43.952Z,4
2023-04-18T19:15:58.035Z,5
2023-04-18T19:17:12.173Z,5
2023-04-18T19:19:40.421Z,5
2023-04-18T19:20:54.546Z,5
2023-04-18T19:22:08.693Z,5
2023-04-18T19:23:22.902Z,4
2023-04-18T19:25:51.066Z,5
2023-04-18T19:27:05.325Z,4
2023-04-18T19:28:19.363Z,5
2023-04-18T19:30:47.628Z,5
2023-04-18T19:32:01.800Z,5
2023-04-18T19:33:15.895Z,5
2023-04-18T19:35:44.164Z,7
2023-04-18T19:36:58.285Z,9
2023-04-18T19:38:12.425Z,6
2023-04-18T19:40:40.684Z,6
2023-04-18T19:41:54.864Z,6
2023-04-18T19:43:08.944Z,6
2023-04-18T19:44:23.189Z,6
2023-04-18T19:46:51.360Z,6
2023-04-18T19:48:05.599Z,7
2023-04-18T19:49:19.636Z,6
2023-04-18T19:51:47.983Z,7
2023-04-18T19:53:02.062Z,6
2023-04-18T19:54:16.261Z,6
2023-04-18T19:56:44.535Z,5
2023-04-18T19:57:58.556Z,6
2023-04-18T19:59:12.924Z,6
2023-04-18T20:01:40.986Z,5
2023-04-18T20:02:55.297Z,5
2023-04-18T20:04:09.393Z,6
2023-04-18T20:05:23.518Z,6
2023-04-18T20:07:51.601Z,5
2023-04-18T20:09:05.805Z,5
2023-04-18T20:10:19.878Z,5
2023-04-18T20:12:49.915Z,6
2023-04-18T20:14:02.281Z,5
2023-04-18T20:15:16.488Z,5
2023-04-18T20:17:44.795Z,6
2023-04-18T20:18:58.865Z,6
2023-04-18T20:20:13.038Z,5
2023-04-18T20:22:41.190Z,5
2023-04-18T20:23:55.475Z,5
2023-04-18T20:25:09.469Z,5
2023-04-18T20:26:23.750Z,6
2023-04-18T20:28:51.909Z,6
2023-04-18T20:30:06.031Z,6
2023-04-18T20:31:20.182Z,5
2023-04-18T20:33:48.476Z,6
2023-04-18T20:35:02.582Z,6
2023-04-18T20:36:16.729Z,6
2023-04-18T20:38:45.009Z,5
2023-04-18T20:39:59.064Z,6
2023-04-18T20:41:13.207Z,6
2023-04-18T20:43:41.474Z,5
2023-04-18T20:44:55.605Z,6
2023-04-18T20:46:09.746Z,6
2023-04-18T20:47:23.904Z,6
2023-04-18T20:49:52.140Z,6
2023-04-18T20:51:06.375Z,5
2023-04-18T20:52:20.386Z,5
2023-04-18T20:54:48.679Z,6
2023-04-18T20:56:02.829Z,6
2023-04-18T20:57:17.108Z,6
2023-04-18T20:59:45.230Z,6
2023-04-18T21:00:59.379Z,6
2023-04-18T21:02:13.600Z,6
2023-04-18T21:04:41.884Z,6
2023-04-18T21:05:55.924Z,6
2023-04-18T21:07:10.015Z,6
2023-04-18T21:08:24.237Z,5
2023-04-18T21:10:52.496Z,6
2023-04-18T21:12:06.630Z,6
2023-04-18T21:13:20.695Z,6
2023-04-18T21:15:49.054Z,6
2023-04-18T21:17:03.158Z,6
2023-04-18T21:18:17.306Z,6
2023-04-18T21:20:45.570Z,7
2023-04-18T21:21:59.692Z,7
2023-04-18T21:23:13.759Z,7
2023-04-18T21:25:41.998Z,7
2023-04-18T21:26:56.158Z,7
2023-04-18T21:28:10.253Z,7
2023-04-18T21:29:24.421Z,7
2023-04-18T21:30:38.569Z,7
2023-04-18T21:31:52.851Z,6
2023-04-18T21:33:06.866Z,6
2023-04-18T21:34:20.928Z,6
2023-04-18T21:36:49.255Z,7
2023-04-18T21:38:03.392Z,6
2023-04-18T21:39:17.545Z,6
2023-04-18T21:41:45.778Z,6
2023-04-18T21:42:59.866Z,6
2023-04-18T21:44:14.318Z,7
2023-04-18T21:46:42.356Z,6
2023-04-18T21:47:56.403Z,6
2023-04-18T21:49:10.504Z,6
2023-04-18T21:50:24.797Z,6
2023-04-18T21:52:53.060Z,6
2023-04-18T21:54:07.201Z,6
2023-04-18T21:55:21.200Z,6
2023-04-18T21:57:49.511Z,6
2023-04-18T21:59:03.647Z,5
2023-04-18T22:00:17.789Z,6
2023-04-18T22:02:46.210Z,6
2023-04-18T22:04:00.228Z,6
2023-04-18T22:05:14.319Z,5
2023-04-18T22:07:54.524Z,6
2023-04-18T22:08:56.684Z,5
2023-04-18T22:10:10.757Z,6
2023-04-18T22:12:39.076Z,6
2023-04-18T22:13:53.209Z,5
2023-04-18T22:15:07.441Z,5
2023-04-18T22:16:21.492Z,5
2023-04-18T22:18:49.745Z,5
2023-04-18T22:20:03.981Z,5
2023-04-18T22:21:18.058Z,5
2023-04-18T22:22:32.127Z,5
2023-04-18T22:23:46.297Z,6
2023-04-18T22:25:00.371Z,5
2023-04-18T22:26:14.578Z,5
2023-04-18T22:28:42.856Z,5
2023-04-18T22:29:56.927Z,5
2023-04-18T22:31:11.072Z,5
2023-04-18T22:33:39.345Z,5
2023-04-18T22:34:53.452Z,5
2023-04-18T22:36:07.680Z,5
2023-04-18T22:37:21.719Z,5
2023-04-18T22:39:49.988Z,5
2023-04-18T22:41:04.146Z,5
2023-04-18T22:42:18.368Z,4
2023-04-18T22:44:46.631Z,5
2023-04-18T22:46:00.679Z,5
2023-04-18T22:47:14.910Z,5
2023-04-18T22:49:43.085Z,5
2023-04-18T22:50:57.197Z,5
2023-04-18T22:52:11.310Z,5
2023-04-18T22:54:39.616Z,4
2023-04-18T22:55:53.725Z,4
2023-04-18T22:57:07.926Z,4
2023-04-18T22:58:22.017Z,4
2023-04-18T23:00:50.271Z,4
2023-04-18T23:02:04.606Z,4
2023-04-18T23:03:18.794Z,4
2023-04-18T23:05:46.884Z,4
2023-04-18T23:07:00.942Z,4
2023-04-18T23:08:15.165Z,4
2023-04-18T23:10:43.334Z,4
2023-04-18T23:11:57.581Z,4
2023-04-18T23:13:11.594Z,4
2023-04-18T23:15:39.905Z,4
2023-04-18T23:16:54.016Z,4
2023-04-18T23:18:08.176Z,4
2023-04-18T23:19:22.284Z,4
2023-04-18T23:21:50.508Z,4
2023-04-18T23:23:04.711Z,5
2023-04-18T23:24:18.868Z,4
2023-04-18T23:26:47.080Z,4
2023-04-18T23:28:01.189Z,4